Pagina principale
METAR-TAF:

METAR-TAF

Aeroporti :

Aeroporto di Reus

Reus, Spagna

latitudine: 41-09N, longitudine: 001-10E, altezza: 71 m

Osservazione

Il bollettino è stato emesso 43 minuti fa, alle 05:30 UTC
Vento 3 kt da ovest, variando fra ovest/sud-ovest e ovest/nord-ovest
Temperature 4°C
Umidità 100%
Pressione 1008 hPa
Visibilità 10 km o più

METAR: LERS 180530Z AUTO 27003KT 240V300 9999 NCD 04/04 Q1008

Ora: 07:13 (06:13 UTC)

Previsione

Il bollettino è stato emesso 4 ore e 13 minuti fa, alle 02:00 UTC
Previsione valida dal 18 alle 03 UTC al 19 alle 03 UTC
Vento 5 kt da ovest
Visibilità 10 km o più
Poco nuvoloso ad un'altezza di 4000 ft
Temporaneamente
dal 18 alle 05 UTC al 18 alle 07 UTC
Vento 10 kt da nord/nord-ovest
Evoluzione graduale
dal 18 alle 18 UTC al 18 alle 20 UTC
Vento 15 kt da ovest/nord-ovest

TAF: LERS 180200Z 1803/1903 28005KT 9999 FEW040 TX15/1813Z TN05/1806Z TEMPO 1805/1807 33010KT BECMG 1818/1820 30015KT

Osservazioni e previsioni meteorologiche di più di 4000 aeroporti (messaggi METAR e TAF).

Le stazioni disponibili sono rappresentate dai dischi gialli e rossi sulla carta.

Puntare il mouse per vedere il nome della stazione.

Clicca sopra per visualizzare le osservazioni e previsioni meteorologiche.

Per cambiare la mappa : fare clic sui pulsanti verdi con una croce nera per ingrandire, il pulsante verde con un trattino per diminuire, o sulla freccia verde per le mappe adiacenti.


METAR-TAF: